Time;durP1;ratioP1;P1;durP2;ratioP2;P2;SDS_P1;SDS_P2;PMS_P1;PMS_P2;Temp;Humidity;BMP_temperature;BMP_pressure;BME280_temperature;BME280_humidity;BME280_pressure;Samples;Min_cycle;Max_cycle;Signal;HPM_P1;HPM_P2
2022/05/22 00:00:31;;;;;;;3.87;2.97;;;;;;;14.26;76.82;98329.66;5055046;28;20669;-70
2022/05/22 00:02:58;;;;;;;7.63;3.67;;;;;;;14.30;76.22;98324.63;5054191;28;20213;-70
2022/05/22 00:05:25;;;;;;;3.87;3.07;;;;;;;14.21;76.77;98323.38;5054296;28;20236;-70
2022/05/22 00:07:51;;;;;;;4.77;3.00;;;;;;;14.19;77.50;98328.09;5054028;28;20224;-70
2022/05/22 00:10:19;;;;;;;7.57;3.37;;;;;;;14.13;77.80;98326.38;5053879;28;20224;-70
2022/05/22 00:12:45;;;;;;;3.80;3.23;;;;;;;14.20;77.26;98325.22;5052770;28;20658;-70
2022/05/22 00:15:14;;;;;;;4.97;3.40;;;;;;;14.27;77.01;98320.56;5054043;28;20204;-70
2022/05/22 00:17:41;;;;;;;4.67;3.30;;;;;;;14.15;77.95;98314.38;5053753;28;20229;-70
2022/05/22 00:20:09;;;;;;;6.73;2.97;;;;;;;14.19;78.22;98312.06;5054128;28;20234;-70
2022/05/22 00:22:36;;;;;;;5.00;3.37;;;;;;;14.24;77.35;98322.91;5053613;28;20208;-70
2022/05/22 00:25:03;;;;;;;5.63;3.47;;;;;;;14.27;77.33;98319.75;5070345;28;20663;-70
2022/05/22 00:27:29;;;;;;;5.57;3.10;;;;;;;14.24;78.08;98314.88;5069872;28;20319;-70
2022/05/22 00:29:55;;;;;;;8.10;3.47;;;;;;;14.27;77.77;98314.41;5054861;28;20208;-70
2022/05/22 00:32:22;;;;;;;5.37;3.30;;;;;;;14.13;78.63;98303.13;5053815;28;20201;-70
2022/05/22 00:34:48;;;;;;;5.63;3.43;;;;;;;14.09;78.95;98306.50;5053044;28;20209;-70
2022/05/22 00:37:15;;;;;;;4.50;3.40;;;;;;;14.12;79.01;98301.50;5052653;28;20216;-70
2022/05/22 00:39:43;;;;;;;4.13;3.00;;;;;;;14.11;78.92;98307.88;5054532;28;20225;-70
2022/05/22 00:42:21;;;;;;;4.93;3.20;;;;;;;14.07;78.62;98304.06;5052974;28;20206;-70
2022/05/22 00:44:48;;;;;;;6.20;3.50;;;;;;;13.98;79.01;98300.09;5052499;28;20208;-70
2022/05/22 00:47:15;;;;;;;4.57;3.40;;;;;;;13.97;79.47;98300.38;5052942;28;20664;-70
2022/05/22 00:49:44;;;;;;;3.83;3.33;;;;;;;13.94;79.23;98296.31;5053275;28;20213;-70
2022/05/22 00:52:12;;;;;;;5.40;3.40;;;;;;;13.92;80.27;98295.72;5052424;28;20208;-70
2022/05/22 00:55:06;;;;;;;6.60;3.10;;;;;;;13.93;79.69;98299.22;5054195;28;20209;-71
2022/05/22 00:57:41;;;;;;;6.53;3.23;;;;;;;13.92;79.87;98295.72;5016440;28;20236;-70
2022/05/22 01:00:13;;;;;;;4.83;3.60;;;;;;;13.94;80.59;98287.47;5053984;28;20648;-70
2022/05/22 01:05:24;;;;;;;5.23;3.37;;;;;;;13.94;80.51;98295.47;5054419;28;20645;-70
2022/05/22 01:07:51;;;;;;;4.93;3.17;;;;;;;13.96;80.28;98288.03;5050988;28;20228;-70
2022/05/22 01:10:19;;;;;;;5.33;3.20;;;;;;;13.94;80.73;98288.28;5053894;28;20220;-70
2022/05/22 01:12:47;;;;;;;6.30;3.30;;;;;;;13.93;80.79;98278.63;5052981;28;20196;-70
2022/05/22 01:15:15;;;;;;;4.13;3.17;;;;;;;13.87;81.55;98276.91;5054010;28;20215;-70
2022/05/22 01:17:47;;;;;;;4.37;3.53;;;;;;;13.84;81.79;98277.34;5052518;28;20705;-70
2022/05/22 01:20:15;;;;;;;7.93;3.53;;;;;;;13.79;82.03;98266.56;5034054;28;20176;-70
2022/05/22 01:22:42;;;;;;;8.13;3.40;;;;;;;13.78;81.63;98267.59;5037026;28;20205;-70
2022/05/22 01:25:10;;;;;;;4.17;3.77;;;;;;;13.86;81.75;98264.59;5052691;28;20212;-70
2022/05/22 01:27:38;;;;;;;4.73;3.30;;;;;;;13.81;81.60;98272.50;5051922;28;20224;-70
2022/05/22 01:30:24;;;;;;;3.97;3.30;;;;;;;13.76;81.74;98279.56;5053145;28;20208;-70
2022/05/22 01:32:51;;;;;;;4.10;3.47;;;;;;;13.78;82.15;98278.28;5050384;28;20675;-70
2022/05/22 01:35:21;;;;;;;4.57;3.13;;;;;;;13.74;82.06;98282.47;5053277;28;20658;-70
2022/05/22 01:37:48;;;;;;;4.90;3.40;;;;;;;13.66;82.54;98285.50;5051862;28;20228;-70
2022/05/22 01:40:16;;;;;;;4.63;3.47;;;;;;;13.61;82.58;98293.41;5051426;28;20208;-70
2022/05/22 01:42:43;;;;;;;6.17;3.50;;;;;;;13.58;82.89;98287.72;5052406;28;20232;-70
2022/05/22 01:45:13;;;;;;;4.40;3.30;;;;;;;13.58;82.93;98293.88;5052322;28;20218;-70
2022/05/22 01:47:40;;;;;;;4.20;3.33;;;;;;;13.60;83.13;98278.41;5052092;28;20716;-70
2022/05/22 01:50:08;;;;;;;3.90;3.33;;;;;;;13.63;83.12;98285.16;5051986;28;20210;-69
2022/05/22 01:52:35;;;;;;;4.23;3.23;;;;;;;13.58;83.17;98277.84;5052470;28;20217;-70
2022/05/22 01:55:02;;;;;;;8.43;3.47;;;;;;;13.53;83.11;98269.72;5052087;28;20290;-70
2022/05/22 01:57:29;;;;;;;4.43;3.50;;;;;;;13.52;82.92;98273.41;5051126;28;20219;-70
2022/05/22 01:59:55;;;;;;;3.27;2.97;;;;;;;13.50;83.32;98278.19;5052091;28;20228;-70
2022/05/22 02:02:22;;;;;;;3.57;3.07;;;;;;;13.50;83.29;98278.19;5051936;28;20663;-70
2022/05/22 02:04:48;;;;;;;6.47;3.50;;;;;;;13.51;83.23;98284.31;5054466;28;20554;-70
2022/05/22 02:09:58;;;;;;;3.67;3.00;;;;;;;13.51;82.75;98266.47;5056238;28;20203;-70
2022/05/22 02:12:25;;;;;;;4.60;3.20;;;;;;;13.45;83.01;98264.72;5054557;28;20206;-70
2022/05/22 02:14:51;;;;;;;5.03;3.37;;;;;;;13.45;82.76;98270.06;5054727;28;20564;-70
2022/05/22 02:17:18;;;;;;;4.20;3.17;;;;;;;13.42;83.48;98262.50;5057019;28;20569;-70
2022/05/22 02:19:44;;;;;;;3.83;3.13;;;;;;;13.37;83.50;98269.56;5055944;28;20257;-70
2022/05/22 02:22:11;;;;;;;3.47;3.17;;;;;;;13.40;83.60;98259.25;5056561;28;20212;-70
2022/05/22 02:24:37;;;;;;;5.30;3.20;;;;;;;13.36;83.74;98257.28;5054785;28;20210;-70
2022/05/22 02:27:06;;;;;;;3.20;2.90;;;;;;;13.35;83.33;98253.81;5056801;28;20212;-70
2022/05/22 02:29:33;;;;;;;6.70;3.00;;;;;;;13.33;83.50;98236.38;5054481;28;20204;-70
2022/05/22 02:31:59;;;;;;;6.73;3.20;;;;;;;13.30;83.35;98232.31;5057103;28;20211;-70
2022/05/22 02:34:25;;;;;;;4.37;3.30;;;;;;;13.26;83.99;98236.50;5055913;28;20208;-70
2022/05/22 02:36:52;;;;;;;4.90;3.10;;;;;;;13.26;84.33;98244.50;5056322;28;20212;-70
2022/05/22 02:39:18;;;;;;;4.63;3.37;;;;;;;13.30;84.59;98236.84;5054412;28;20234;-70
2022/05/22 02:41:45;;;;;;;4.43;3.10;;;;;;;13.30;84.34;98237.63;5055905;28;20215;-70
2022/05/22 02:44:12;;;;;;;4.70;3.20;;;;;;;13.25;84.74;98229.50;5055368;28;20213;-70
2022/05/22 02:46:42;;;;;;;3.50;2.80;;;;;;;13.23;84.63;98233.47;5056267;28;20207;-70
2022/05/22 02:49:08;;;;;;;4.10;3.27;;;;;;;13.17;84.77;98248.56;5055619;28;20233;-70
2022/05/22 02:51:36;;;;;;;3.20;2.90;;;;;;;13.20;85.09;98232.06;5054707;28;20221;-70
2022/05/22 02:54:03;;;;;;;4.97;3.33;;;;;;;13.15;84.59;98237.28;5054419;28;20203;-70
2022/05/22 02:56:29;;;;;;;3.90;3.10;;;;;;;13.15;84.73;98234.63;5054479;28;20206;-70
2022/05/22 02:58:56;;;;;;;4.57;3.23;;;;;;;13.16;84.92;98230.09;5056130;28;20232;-70
2022/05/22 03:01:22;;;;;;;5.93;3.23;;;;;;;13.16;84.65;98230.09;5055087;28;20577;-70
2022/05/22 03:03:49;;;;;;;6.00;3.20;;;;;;;13.17;84.67;98207.69;5056414;28;20212;-70
2022/05/22 03:08:59;;;;;;;4.27;2.80;;;;;;;13.14;84.43;98214.31;5055977;28;20204;-70
2022/05/22 03:11:25;;;;;;;3.93;3.07;;;;;;;13.13;84.58;98203.88;5054658;28;20218;-70
2022/05/22 03:13:52;;;;;;;3.27;2.93;;;;;;;13.08;84.48;98212.56;5055850;28;20211;-70
2022/05/22 03:16:18;;;;;;;4.17;3.00;;;;;;;13.04;84.82;98213.25;5052925;28;20210;-70
2022/05/22 03:18:45;;;;;;;3.87;3.13;;;;;;;12.97;85.34;98207.22;5054896;28;20314;-70
2022/05/22 03:21:12;;;;;;;3.50;3.20;;;;;;;12.96;85.21;98192.19;5053391;28;20205;-70
2022/05/22 03:23:39;;;;;;;4.20;3.13;;;;;;;13.00;85.47;98188.91;5055081;28;20222;-70
2022/05/22 03:26:05;;;;;;;4.60;2.90;;;;;;;12.96;84.87;98193.03;5052705;28;20202;-70
2022/05/22 03:28:31;;;;;;;5.00;3.73;;;;;;;12.90;85.67;98191.28;5056320;28;20234;-70
2022/05/22 03:30:58;;;;;;;3.67;3.37;;;;;;;12.95;85.29;98196.75;5053829;28;20230;-70
2022/05/22 03:33:24;;;;;;;4.33;3.27;;;;;;;12.93;85.28;98193.47;5055921;28;20205;-71
2022/05/22 03:35:50;;;;;;;3.53;3.00;;;;;;;12.86;85.20;98198.13;5053537;28;20236;-70
2022/05/22 03:38:17;;;;;;;3.30;3.00;;;;;;;12.83;85.29;98187.91;5054559;28;20228;-70
2022/05/22 03:40:46;;;;;;;3.20;2.90;;;;;;;12.80;85.44;98195.56;5052936;28;20226;-71
2022/05/22 03:43:17;;;;;;;3.30;3.00;;;;;;;12.82;85.08;98190.78;5037604;28;20612;-70
2022/05/22 03:45:45;;;;;;;3.97;3.10;;;;;;;12.83;85.19;98193.25;5052822;28;20205;-70
2022/05/22 03:48:13;;;;;;;5.10;3.43;;;;;;;12.84;86.08;98202.06;5054177;28;20217;-70
2022/05/22 03:50:40;;;;;;;3.63;3.10;;;;;;;12.77;85.86;98196.84;5054463;28;20205;-70
2022/05/22 03:53:06;;;;;;;5.60;3.03;;;;;;;12.81;85.83;98189.19;5054418;28;20202;-70
2022/05/22 03:55:33;;;;;;;3.17;2.90;;;;;;;12.81;85.60;98198.00;5055373;28;20205;-70
2022/05/22 03:57:59;;;;;;;4.47;2.90;;;;;;;12.76;85.67;98192.53;5053181;28;20232;-70
2022/05/22 04:00:26;;;;;;;5.73;3.40;;;;;;;12.71;86.64;98196.94;5055348;28;20221;-70
2022/05/22 04:02:53;;;;;;;4.70;3.13;;;;;;;12.78;85.29;98192.28;5053011;28;20210;-70
2022/05/22 04:05:20;;;;;;;3.70;3.23;;;;;;;12.92;84.53;98191.03;5054364;28;20206;-70
2022/05/22 04:07:49;;;;;;;4.40;3.20;;;;;;;12.88;84.83;98182.69;5053847;28;20253;-70
2022/05/22 04:10:17;;;;;;;3.70;3.30;;;;;;;12.91;84.92;98179.56;5053165;28;20218;-70
2022/05/22 04:12:44;;;;;;;3.70;3.10;;;;;;;12.89;84.45;98172.84;5053661;28;20206;-70
2022/05/22 04:15:15;;;;;;;4.90;3.20;;;;;;;12.93;84.03;98182.00;5055040;28;20201;-70
2022/05/22 04:17:41;;;;;;;4.13;2.83;;;;;;;12.97;83.84;98173.34;5053508;28;20731;-70
2022/05/22 04:20:08;;;;;;;4.00;2.93;;;;;;;12.97;84.09;98173.34;5053716;28;20252;-70
2022/05/22 04:25:10;;;;;;;4.10;3.07;;;;;;;13.01;84.09;98173.66;5053265;28;20205;-70
2022/05/22 04:25:21;;;;;;;3.50;3.20;;;;;;;13.00;83.39;98167.53;5052524;28;20216;-70
2022/05/22 04:27:48;;;;;;;3.43;2.90;;;;;;;13.04;83.27;98173.22;5053555;28;20241;-70
2022/05/22 04:30:18;;;;;;;3.53;3.03;;;;;;;13.00;83.33;98172.06;5071064;28;20200;-70
2022/05/22 04:32:46;;;;;;;3.53;3.17;;;;;;;12.99;83.73;98165.09;5063292;28;20206;-70
2022/05/22 04:35:13;;;;;;;3.47;2.90;;;;;;;13.00;83.58;98166.72;5054229;28;20218;-70
2022/05/22 04:37:39;;;;;;;4.60;3.40;;;;;;;12.89;84.10;98154.94;5052330;28;20221;-70
2022/05/22 04:40:08;;;;;;;5.43;3.30;;;;;;;12.93;84.08;98156.13;5053341;28;20223;-70
2022/05/22 04:42:35;;;;;;;3.07;2.77;;;;;;;12.93;84.54;98150.78;5053164;28;20229;-70
2022/05/22 04:45:02;;;;;;;5.10;3.00;;;;;;;13.03;84.06;98161.72;5053062;28;20617;-70
2022/05/22 04:47:28;;;;;;;5.67;3.10;;;;;;;13.12;83.73;98170.22;5053043;28;20229;-70
2022/05/22 04:49:55;;;;;;;5.93;3.10;;;;;;;13.11;83.57;98164.06;5054425;28;20202;-70
2022/05/22 04:52:21;;;;;;;4.63;3.30;;;;;;;13.13;83.41;98167.31;5053326;28;20275;-69
2022/05/22 04:54:48;;;;;;;3.13;2.80;;;;;;;13.16;83.53;98164.16;5053205;28;20202;-70
2022/05/22 04:57:15;;;;;;;4.47;3.03;;;;;;;13.19;83.61;98171.72;5052880;28;20220;-70
2022/05/22 04:59:41;;;;;;;3.00;2.60;;;;;;;13.64;81.75;98164.72;5054193;28;20242;-70
2022/05/22 05:02:07;;;;;;;4.17;2.90;;;;;;;14.26;78.82;98163.03;5051168;28;20205;-70
2022/05/22 05:04:34;;;;;;;5.17;2.93;;;;;;;14.53;77.21;98153.34;5051597;28;20208;-70
2022/05/22 05:07:05;;;;;;;4.90;2.87;;;;;;;14.92;74.04;98158.56;5052773;28;20208;-70
2022/05/22 05:09:32;;;;;;;4.67;2.93;;;;;;;15.04;74.42;98153.94;5053641;28;20207;-69
2022/05/22 05:12:01;;;;;;;3.43;2.67;;;;;;;15.20;73.20;98158.44;5053618;28;20265;-70
2022/05/22 05:14:28;;;;;;;4.77;2.40;;;;;;;14.98;73.52;98157.59;5052536;28;20667;-70
2022/05/22 05:16:54;;;;;;;5.47;2.90;;;;;;;15.11;73.40;98143.06;5054646;28;20639;-70
2022/05/22 05:19:21;;;;;;;5.13;2.83;;;;;;;14.58;75.23;98142.72;5051728;28;20229;-70
2022/05/22 05:21:47;;;;;;;8.20;3.30;;;;;;;14.45;75.60;98146.53;5052695;28;20205;-70
2022/05/22 05:24:13;;;;;;;4.87;2.60;;;;;;;14.61;75.98;98145.72;5052159;28;20213;-70
2022/05/22 05:26:40;;;;;;;3.43;2.80;;;;;;;14.20;76.71;98138.03;5052741;28;20209;-70
2022/05/22 05:29:07;;;;;;;3.23;2.90;;;;;;;14.47;76.46;98144.41;5051778;28;20233;-70
2022/05/22 05:31:33;;;;;;;4.17;2.50;;;;;;;14.49;75.93;98145.00;5051520;28;20201;-70
2022/05/22 05:33:59;;;;;;;3.50;2.43;;;;;;;14.73;74.37;98149.16;5051526;28;20211;-70
2022/05/22 05:36:26;;;;;;;2.97;2.57;;;;;;;14.80;74.55;98143.66;5052200;28;20212;-70
2022/05/22 05:38:53;;;;;;;2.60;2.40;;;;;;;15.01;74.13;98145.59;5051702;28;20275;-70
2022/05/22 05:41:19;;;;;;;4.23;2.63;;;;;;;14.99;73.71;98143.16;5052530;28;20201;-70
2022/05/22 05:43:45;;;;;;;2.83;2.50;;;;;;;14.99;73.04;98148.50;5052263;28;20202;-70
2022/05/22 05:46:12;;;;;;;3.30;2.63;;;;;;;15.02;72.74;98142.66;5052516;28;20212;-70
2022/05/22 05:48:38;;;;;;;4.47;2.80;;;;;;;15.21;72.20;98136.00;5047101;28;20224;-70
2022/05/22 05:51:04;;;;;;;3.93;2.47;;;;;;;15.30;72.02;98139.88;5053417;28;20201;-70
2022/05/22 05:53:31;;;;;;;6.23;2.80;;;;;;;15.40;71.51;98134.69;5050840;28;20566;-70
2022/05/22 05:55:57;;;;;;;4.73;2.80;;;;;;;15.35;71.01;98131.94;5052395;28;20564;-70
2022/05/22 05:58:23;;;;;;;4.60;2.77;;;;;;;15.06;71.38;98143.00;5050862;28;20225;-70
2022/05/22 06:00:50;;;;;;;4.97;2.70;;;;;;;15.38;71.84;98139.47;5051335;28;20228;-70
2022/05/22 06:03:16;;;;;;;2.53;2.20;;;;;;;15.51;70.76;98135.63;5052339;28;20208;-70
2022/05/22 06:05:42;;;;;;;4.30;2.37;;;;;;;15.47;70.68;98137.19;5052297;28;20212;-70
2022/05/22 06:08:09;;;;;;;3.10;2.80;;;;;;;15.81;71.27;98136.81;5051869;28;20228;-70
2022/05/22 06:10:37;;;;;;;3.47;2.30;;;;;;;15.74;71.08;98130.81;5051752;28;20209;-70
2022/05/22 06:13:04;;;;;;;2.60;2.40;;;;;;;15.93;70.18;98121.38;5052175;28;20209;-70
2022/05/22 06:15:31;;;;;;;3.07;2.47;;;;;;;16.15;69.28;98122.16;5051916;28;20201;-70
2022/05/22 06:17:58;;;;;;;2.97;2.50;;;;;;;16.48;67.42;98126.56;5049700;28;20244;-70
2022/05/22 06:20:24;;;;;;;3.67;2.50;;;;;;;16.08;67.94;98126.94;5051447;28;20569;-70
2022/05/22 06:22:51;;;;;;;3.67;2.60;;;;;;;16.16;68.19;98120.31;5053145;28;20232;-70
2022/05/22 06:25:17;;;;;;;3.00;2.30;;;;;;;16.12;68.82;98128.06;5051723;28;20656;-70
2022/05/22 06:27:44;;;;;;;2.40;2.10;;;;;;;16.26;67.83;98117.72;5051566;28;20623;-70
2022/05/22 06:30:14;;;;;;;3.43;2.70;;;;;;;16.52;67.76;98117.72;5059515;28;20311;-70
2022/05/22 06:32:42;;;;;;;3.77;2.40;;;;;;;16.50;66.98;98125.25;5049342;28;20212;-70
2022/05/22 06:35:10;;;;;;;3.57;2.43;;;;;;;16.47;67.31;98125.75;5050451;28;20296;-70
2022/05/22 06:37:37;;;;;;;3.93;2.77;;;;;;;16.74;65.18;98118.47;5051660;28;20225;-70
2022/05/22 06:40:04;;;;;;;2.40;2.20;;;;;;;16.67;66.71;98123.25;5051117;28;20217;-70
2022/05/22 06:42:34;;;;;;;2.63;2.33;;;;;;;16.82;67.40;98128.75;5049607;28;20202;-70
2022/05/22 06:45:00;;;;;;;4.27;2.50;;;;;;;16.90;69.02;98124.75;5043828;28;20549;-71
2022/05/22 06:47:29;;;;;;;4.70;2.30;;;;;;;16.87;64.92;98123.41;5048650;28;20303;-70
2022/05/22 06:49:57;;;;;;;3.63;2.23;;;;;;;17.14;64.97;98134.09;5050538;28;20208;-70
2022/05/22 06:52:24;;;;;;;3.00;2.50;;;;;;;17.08;65.02;98127.03;5056615;28;20208;-70
2022/05/22 06:54:50;;;;;;;5.53;2.23;;;;;;;17.43;64.58;98128.13;5054371;28;20201;-70
2022/05/22 06:57:19;;;;;;;3.03;2.20;;;;;;;17.34;63.65;98126.16;5055203;28;20660;-70
2022/05/22 06:59:47;;;;;;;2.57;2.20;;;;;;;17.24;63.69;98132.25;5053818;28;20225;-70
2022/05/22 07:02:15;;;;;;;2.17;1.97;;;;;;;17.26;64.19;98122.06;5056337;28;20553;-70
2022/05/22 07:04:42;;;;;;;3.87;2.07;;;;;;;17.18;63.07;98133.31;5053980;28;20236;-70
2022/05/22 07:07:09;;;;;;;2.33;2.00;;;;;;;17.09;62.85;98145.59;5055465;28;20205;-70
2022/05/22 07:09:36;;;;;;;3.43;2.17;;;;;;;17.24;63.47;98143.00;5052906;28;20671;-70
2022/05/22 07:12:06;;;;;;;2.97;2.37;;;;;;;17.44;62.45;98137.81;5052241;28;20213;-70
2022/05/22 07:14:33;;;;;;;4.00;2.20;;;;;;;17.55;62.58;98138.66;5054870;28;20197;-70
2022/05/22 07:17:02;;;;;;;4.73;2.30;;;;;;;17.78;61.67;98124.78;5053691;28;20209;-70
2022/05/22 07:19:29;;;;;;;3.07;2.23;;;;;;;18.29;59.73;98127.38;5054355;28;20213;-70
2022/05/22 07:21:55;;;;;;;2.70;2.23;;;;;;;18.25;59.42;98117.41;5055622;28;20288;-70
2022/05/22 07:24:21;;;;;;;2.97;1.87;;;;;;;18.21;60.33;98109.06;5055689;28;20231;-70
2022/05/22 07:26:48;;;;;;;2.20;1.90;;;;;;;18.21;59.32;98119.81;5054667;28;20205;-70
2022/05/22 07:29:14;;;;;;;4.10;2.00;;;;;;;18.45;59.74;98122.84;5054339;28;20233;-70
2022/05/22 07:31:41;;;;;;;2.70;1.90;;;;;;;18.58;57.42;98117.75;5053202;28;20648;-70
2022/05/22 07:34:08;;;;;;;2.00;1.80;;;;;;;18.24;59.72;98115.78;5053372;28;20544;-70
2022/05/22 07:36:34;;;;;;;2.63;1.83;;;;;;;18.27;59.33;98109.88;5054729;28;20204;-70
2022/05/22 07:39:01;;;;;;;2.53;2.10;;;;;;;18.47;59.19;98105.38;5054302;28;20236;-70
2022/05/22 07:41:27;;;;;;;3.87;2.00;;;;;;;18.33;59.01;98101.56;5052816;28;20591;-70
2022/05/22 07:43:53;;;;;;;3.93;1.80;;;;;;;18.61;60.06;98105.63;5054523;28;20201;-70
2022/05/22 07:46:20;;;;;;;2.97;2.07;;;;;;;18.66;57.58;98093.00;5053213;28;20211;-70
2022/05/22 07:48:46;;;;;;;2.53;1.73;;;;;;;18.63;58.11;98098.91;5054560;28;20221;-70
2022/05/22 07:51:13;;;;;;;3.27;2.00;;;;;;;18.67;57.14;98097.28;5052952;28;20197;-70
2022/05/22 07:53:39;;;;;;;3.17;2.03;;;;;;;18.76;59.20;98094.84;5055235;28;20216;-70
2022/05/22 07:56:06;;;;;;;3.23;2.00;;;;;;;18.67;56.87;98089.22;5051806;28;20546;-70
2022/05/22 07:58:33;;;;;;;2.93;2.03;;;;;;;18.30;57.68;98083.22;5054848;28;20242;-70
2022/05/22 08:01:00;;;;;;;2.33;1.90;;;;;;;18.54;58.22;98089.75;5052244;28;20715;-70
2022/05/22 08:03:27;;;;;;;5.27;2.00;;;;;;;18.79;58.13;98075.47;5054214;28;20209;-70
2022/05/22 08:05:55;;;;;;;3.63;2.10;;;;;;;19.06;56.30;98074.09;5051570;28;20205;-70
2022/05/22 08:08:22;;;;;;;2.90;2.10;;;;;;;19.08;56.37;98071.94;5055003;28;20235;-70
2022/05/22 08:10:49;;;;;;;3.40;1.83;;;;;;;19.25;56.07;98063.56;5052485;28;20587;-70
2022/05/22 08:13:15;;;;;;;2.93;1.60;;;;;;;19.30;56.28;98067.06;5054874;28;20216;-70
2022/05/22 08:15:43;;;;;;;2.27;2.00;;;;;;;19.21;55.08;98071.38;5052374;28;20209;-70
2022/05/22 08:18:10;;;;;;;3.27;1.90;;;;;;;19.38;54.85;98069.19;5053493;28;20702;-71
2022/05/22 08:20:39;;;;;;;2.87;1.90;;;;;;;19.53;54.40;98066.44;5049501;28;20225;-70
2022/05/22 08:23:09;;;;;;;4.17;2.10;;;;;;;19.61;54.65;98056.97;5053255;28;20680;-70
2022/05/22 08:25:35;;;;;;;2.97;1.70;;;;;;;19.39;53.94;98065.41;5052698;28;20305;-70
2022/05/22 08:28:04;;;;;;;2.57;1.80;;;;;;;19.41;53.98;98051.66;5053526;28;20225;-70
2022/05/22 08:30:31;;;;;;;2.53;2.10;;;;;;;19.41;53.69;98052.44;5053419;28;20348;-70
2022/05/22 08:32:57;;;;;;;2.53;1.63;;;;;;;19.85;54.34;98049.03;5061098;28;20203;-70
2022/05/22 08:35:33;;;;;;;1.83;1.60;;;;;;;20.22;52.02;98044.78;5062757;28;20206;-70
2022/05/22 08:38:00;;;;;;;3.20;1.47;;;;;;;20.14;51.54;98039.16;5053315;28;20251;-70
2022/05/22 08:40:34;;;;;;;4.67;1.67;;;;;;;20.17;51.54;98035.91;5053351;28;20221;-71
2022/05/22 08:43:17;;;;;;;2.27;1.63;;;;;;;20.26;50.83;98035.03;5049791;28;20204;-70
2022/05/22 08:45:59;;;;;;;2.17;1.53;;;;;;;19.68;50.27;98034.00;5053009;28;20682;-70
2022/05/22 08:49:00;;;;;;;3.07;1.80;;;;;;;20.09;50.73;98033.81;5053204;28;20221;-70
2022/05/22 08:51:35;;;;;;;2.17;1.70;;;;;;;20.18;51.45;98032.13;5008505;28;20201;-70
2022/05/22 08:54:33;;;;;;;2.47;1.50;;;;;;;20.01;50.08;98027.06;5020785;28;20204;-70
2022/05/22 08:59:54;;;;;;;3.50;1.47;;;;;;;20.26;50.83;98021.53;4995892;28;20260;-71
2022/05/22 09:02:33;;;;;;;1.97;1.50;;;;;;;20.53;50.53;98019.16;5038031;28;20223;-70
2022/05/22 09:05:10;;;;;;;2.40;1.43;;;;;;;20.71;48.74;98014.94;5052859;28;20204;-70
2022/05/22 09:08:12;;;;;;;1.53;1.30;;;;;;;20.63;47.14;98010.97;5050495;28;20307;-70
2022/05/22 09:11:06;;;;;;;2.10;1.20;;;;;;;20.81;48.15;98017.56;5035592;28;20216;-70
2022/05/22 09:13:48;;;;;;;4.53;1.43;;;;;;;21.16;48.34;98017.22;5051495;28;20671;-70
2022/05/22 09:16:39;;;;;;;2.37;1.47;;;;;;;21.15;48.08;98008.31;5035010;28;20292;-70
2022/05/22 09:19:12;;;;;;;3.73;1.73;;;;;;;21.48;46.51;98006.56;5052395;28;20217;-69
2022/05/22 09:22:21;;;;;;;2.77;1.73;;;;;;;21.24;46.84;98009.28;5053581;28;20217;-70
2022/05/22 09:25:09;;;;;;;1.77;1.60;;;;;;;21.00;45.92;98010.34;5049853;28;20197;-70
2022/05/22 09:28:10;;;;;;;2.60;1.40;;;;;;;21.35;44.22;98004.56;5052344;28;20225;-70
2022/05/22 09:30:50;;;;;;;2.30;1.60;;;;;;;20.82;45.93;97994.84;5018474;28;20197;-70
2022/05/22 09:33:38;;;;;;;3.53;1.40;;;;;;;21.36;45.15;97992.63;5052610;28;20201;-70
2022/05/22 09:36:17;;;;;;;3.37;1.53;;;;;;;21.39;47.54;97995.56;5052571;28;20205;-70
2022/05/22 09:39:07;;;;;;;4.10;1.30;;;;;;;21.79;44.80;97988.88;5035428;28;20227;-71
2022/05/22 09:41:40;;;;;;;2.50;1.30;;;;;;;21.87;44.19;97980.06;5052278;28;20225;-71
2022/05/22 09:44:27;;;;;;;2.40;1.57;;;;;;;21.30;44.90;97991.88;5051967;28;20211;-70
2022/05/22 09:47:05;;;;;;;3.03;1.40;;;;;;;21.38;45.25;97982.34;5032712;28;20208;-70
2022/05/22 09:49:43;;;;;;;3.67;1.43;;;;;;;22.02;45.03;97985.28;5049160;28;20206;-70
2022/05/22 09:52:12;;;;;;;2.40;1.60;;;;;;;22.42;43.37;97984.63;5051588;28;20201;-70
2022/05/22 09:54:42;;;;;;;2.23;1.53;;;;;;;22.39;44.68;97979.81;5051109;28;20198;-71
2022/05/22 09:57:38;;;;;;;3.10;1.63;;;;;;;22.45;45.04;97974.06;5051742;28;20212;-71
2022/05/22 10:00:17;;;;;;;2.93;1.40;;;;;;;22.57;41.99;97976.28;5034860;28;20664;-70
2022/05/22 10:03:04;;;;;;;1.67;1.50;;;;;;;22.38;44.80;97978.22;5051957;28;20209;-70
2022/05/22 10:05:55;;;;;;;1.40;1.30;;;;;;;22.81;43.61;97972.31;5050579;28;20205;-70
2022/05/22 10:08:36;;;;;;;1.93;1.30;;;;;;;22.20;44.50;97960.09;5051270;28;20587;-70
2022/05/22 10:11:21;;;;;;;2.47;1.37;;;;;;;22.69;43.49;97963.03;5036565;28;20205;-70
2022/05/22 10:14:01;;;;;;;4.43;2.60;;;;;;;22.81;42.61;97963.38;5051194;28;20198;-71
2022/05/22 10:16:43;;;;;;;3.33;1.60;;;;;;;22.05;44.69;97960.31;5051638;28;20189;-70
2022/05/22 10:19:27;;;;;;;3.00;1.47;;;;;;;22.75;43.72;97957.22;5050691;28;20216;-70
2022/05/22 10:22:16;;;;;;;3.07;1.80;;;;;;;22.77;42.25;97959.66;5051830;28;20221;-70
2022/05/22 10:24:58;;;;;;;1.50;1.40;;;;;;;22.83;42.45;97955.75;5035455;28;20209;-70
2022/05/22 10:27:39;;;;;;;2.37;1.70;;;;;;;22.85;42.45;97961.69;5054227;28;20224;-70
2022/05/22 10:30:31;;;;;;;3.10;1.53;;;;;;;22.28;42.92;97954.78;5055398;28;20686;-70
2022/05/22 10:33:09;;;;;;;2.83;1.60;;;;;;;22.71;42.82;97955.44;5055786;28;20227;-70
2022/05/22 10:35:45;;;;;;;2.05;1.65;;;;;;;22.88;42.76;97953.75;5052303;28;20205;-70
2022/05/22 10:38:33;;;;;;;2.15;1.55;;;;;;;22.55;42.88;97944.06;5055671;28;20249;-70
2022/05/22 10:44:30;;;;;;;4.15;1.42;;;;;;;23.09;43.77;97932.47;5009242;28;20201;-70
2022/05/22 10:46:59;;;;;;;3.28;1.58;;;;;;;22.48;41.67;97932.00;5037726;28;20205;-69
2022/05/22 10:49:40;;;;;;;1.73;1.43;;;;;;;22.31;43.87;97927.13;5054748;28;20287;-70
2022/05/22 10:52:09;;;;;;;2.63;1.73;;;;;;;22.61;43.75;97923.88;5056636;28;20182;-69
2022/05/22 10:54:45;;;;;;;2.67;1.57;;;;;;;22.83;43.28;97904.25;5055083;28;20201;-70
2022/05/22 10:57:15;;;;;;;3.00;1.60;;;;;;;22.91;43.16;97906.25;5055625;28;20254;-69
2022/05/22 10:59:42;;;;;;;1.60;1.50;;;;;;;22.75;42.33;97899.53;5055306;28;20209;-70
2022/05/22 11:02:24;;;;;;;2.75;1.60;;;;;;;22.72;42.47;97900.94;5055774;28;20228;-69
2022/05/22 11:04:53;;;;;;;1.70;1.60;;;;;;;23.25;40.93;97899.31;5055205;28;20207;-68
2022/05/22 11:07:31;;;;;;;3.43;2.00;;;;;;;22.52;41.21;97892.38;5054242;28;20201;-68
2022/05/22 11:10:08;;;;;;;3.93;1.67;;;;;;;23.08;41.91;97895.59;5054454;28;20197;-68
2022/05/22 11:12:34;;;;;;;1.83;1.37;;;;;;;22.96;41.26;97904.25;5055627;28;20659;-68
2022/05/22 11:15:29;;;;;;;3.03;1.60;;;;;;;23.15;42.81;97896.00;5052944;28;20228;-68
2022/05/22 11:18:07;;;;;;;3.40;1.83;;;;;;;23.30;41.75;97891.09;5047055;28;20236;-68
2022/05/22 11:20:34;;;;;;;1.40;1.30;;;;;;;23.40;40.55;97882.72;5054155;28;20269;-68
2022/05/22 11:23:33;;;;;;;1.50;1.13;;;;;;;22.85;40.72;97883.88;5053599;28;20233;-69
2022/05/22 11:26:29;;;;;;;3.97;1.60;;;;;;;23.29;42.72;97885.97;5054955;28;20201;-70
2022/05/22 11:29:06;;;;;;;2.30;1.52;;;;;;;23.30;42.59;97877.53;5054690;28;20225;-70
2022/05/22 11:32:00;;;;;;;3.72;1.60;;;;;;;23.00;41.77;97874.59;5036238;28;20203;-70
2022/05/22 11:34:53;;;;;;;2.38;1.52;;;;;;;23.36;40.76;97875.50;5054655;28;20205;-70
2022/05/22 11:37:38;;;;;;;1.92;1.70;;;;;;;23.32;42.12;97871.78;5054831;28;20201;-70
2022/05/22 11:40:23;;;;;;;3.20;1.50;;;;;;;23.41;41.40;97868.06;5050751;28;20208;-69
2022/05/22 11:42:58;;;;;;;4.10;1.60;;;;;;;23.17;40.73;97875.63;5054408;28;20208;-70
2022/05/22 11:45:45;;;;;;;3.10;1.40;;;;;;;23.13;41.46;97873.78;5037234;28;20206;-70
2022/05/22 11:48:33;;;;;;;2.17;1.52;;;;;;;22.70;40.47;97867.88;5055226;28;20726;-70
2022/05/22 11:51:25;;;;;;;1.35;1.20;;;;;;;22.56;42.35;97880.63;5054411;28;20193;-70
2022/05/22 11:54:17;;;;;;;1.70;1.58;;;;;;;22.92;41.22;97865.28;5038653;28;20194;-70
2022/05/22 11:57:07;;;;;;;2.63;1.75;;;;;;;22.59;42.24;97850.25;5052811;28;20205;-70
2022/05/22 11:59:52;;;;;;;2.70;1.55;;;;;;;22.89;42.54;97852.31;5055170;28;20189;-70
2022/05/22 12:02:19;;;;;;;2.40;1.63;;;;;;;23.13;42.60;97841.25;5053925;28;20231;-69
2022/05/22 12:05:09;;;;;;;3.00;1.60;;;;;;;23.16;42.46;97840.66;5053568;28;20624;-69
2022/05/22 12:08:07;;;;;;;3.95;1.70;;;;;;;22.72;43.38;97837.78;5053945;28;20229;-70